Time;durP1;ratioP1;P1;durP2;ratioP2;P2;SDS_P1;SDS_P2;PMS_P1;PMS_P2;Temp;Humidity;BMP_temperature;BMP_pressure;BME280_temperature;BME280_humidity;BME280_pressure;Samples;Min_cycle;Max_cycle;Signal;HPM_P1;HPM_P2
2023/02/27 00:02:16;;;;;;;;;;;;;;;23.84;31.93;94236.72;5031044;28;1528;-73
2023/02/27 00:04:41;;;;;;;;;;;;;;;23.81;32.28;94243.34;5023293;28;1404;-73
2023/02/27 00:07:07;;;;;;;;;;;;;;;23.87;32.12;94244.25;5029345;28;1229;-72
2023/02/27 00:09:33;;;;;;;;;;;;;;;23.88;31.97;94235.97;5031196;28;1329;-73
2023/02/27 00:11:58;;;;;;;;;;;;;;;23.95;32.09;94238.47;5031685;28;1157;-73
2023/02/27 00:14:23;;;;;;;;;;;;;;;23.94;32.09;94243.03;5029513;28;1501;-73
2023/02/27 00:16:48;;;;;;;;;;;;;;;23.85;32.16;94243.66;5020284;28;1464;-73
2023/02/27 00:19:14;;;;;;;;;;;;;;;23.94;32.38;94243.03;5031059;28;1885;-73
2023/02/27 00:21:39;;;;;;;;;;;;;;;23.86;32.23;94234.59;5030503;28;1206;-73
2023/02/27 00:24:05;;;;;;;;;;;;;;;23.97;32.43;94226.47;5029300;28;1159;-73
2023/02/27 00:26:30;;;;;;;;;;;;;;;23.96;32.25;94230.22;5031040;28;1424;-73
2023/02/27 00:28:56;;;;;;;;;;;;;;;23.93;32.37;94236.03;5021793;28;1127;-73
2023/02/27 00:31:21;;;;;;;;;;;;;;;24.01;32.50;94240.97;5047458;28;1232;-73
2023/02/27 00:33:46;;;;;;;;;;;;;;;24.03;32.29;94235.38;5031534;28;1448;-73
2023/02/27 00:36:12;;;;;;;;;;;;;;;24.02;32.50;94239.94;5032495;28;1341;-73
2023/02/27 00:38:37;;;;;;;;;;;;;;;24.27;31.62;94241.34;5029574;28;1901;-70
2023/02/27 00:41:02;;;;;;;;;;;;;;;24.33;31.53;94255.63;5029688;28;1269;-69
2023/02/27 00:43:28;;;;;;;;;;;;;;;24.27;32.00;94262.78;5035943;28;1099;-69
2023/02/27 00:45:53;;;;;;;;;;;;;;;24.07;32.24;94233.81;5034679;28;1189;-70
2023/02/27 00:48:18;;;;;;;;;;;;;;;23.97;32.55;94231.81;5051498;28;1480;-70
2023/02/27 00:50:44;;;;;;;;;;;;;;;23.88;32.79;94237.81;5026052;28;1460;-67
2023/02/27 00:53:09;;;;;;;;;;;;;;;23.83;33.18;94246.63;5035817;28;1437;-67
2023/02/27 00:55:34;;;;;;;;;;;;;;;23.82;32.95;94236.94;5035224;28;1171;-68
2023/02/27 00:58:00;;;;;;;;;;;;;;;23.83;33.00;94248.50;5036115;28;890;-68
2023/02/27 01:00:25;;;;;;;;;;;;;;;23.85;33.06;94249.88;5035387;28;1969;-69
2023/02/27 01:02:51;;;;;;;;;;;;;;;23.88;33.07;94261.94;5070801;22;1965;-73
2023/02/27 01:05:17;;;;;;;;;;;;;;;23.95;33.12;94254.56;5042348;28;1560;-66
2023/02/27 01:07:42;;;;;;;;;;;;;;;24.03;32.44;94251.47;5054617;28;1123;-66
2023/02/27 01:10:09;;;;;;;;;;;;;;;23.85;32.99;94244.50;5064512;28;1298;-66
2023/02/27 01:12:34;;;;;;;;;;;;;;;23.82;32.87;94244.97;5042179;28;1485;-67
2023/02/27 01:15:00;;;;;;;;;;;;;;;23.87;32.93;94245.06;5059442;28;1309;-67
2023/02/27 01:17:25;;;;;;;;;;;;;;;23.93;32.99;94245.94;5041647;28;1425;-68
2023/02/27 01:19:50;;;;;;;;;;;;;;;23.93;33.13;94241.38;5055788;28;1909;-67
2023/02/27 01:22:16;;;;;;;;;;;;;;;23.95;32.98;94241.97;5056072;28;1147;-67
2023/02/27 01:24:41;;;;;;;;;;;;;;;23.82;33.38;94244.16;5052656;28;1191;-73
2023/02/27 01:27:06;;;;;;;;;;;;;;;23.84;33.21;94242.06;5054479;28;1076;-67
2023/02/27 01:29:32;;;;;;;;;;;;;;;23.90;33.11;94243.75;5060680;28;1444;-68
2023/02/27 01:31:57;;;;;;;;;;;;;;;23.88;33.40;94240.50;5054545;28;1186;-68
2023/02/27 01:34:22;;;;;;;;;;;;;;;24.02;33.12;94247.16;5061899;28;1195;-67
2023/02/27 01:36:48;;;;;;;;;;;;;;;24.02;33.25;94256.03;5035632;28;1405;-67
2023/02/27 01:39:13;;;;;;;;;;;;;;;23.99;33.17;94263.72;5065361;28;1902;-67
2023/02/27 01:41:38;;;;;;;;;;;;;;;23.96;33.60;94262.38;5065632;28;1211;-67
2023/02/27 01:44:05;;;;;;;;;;;;;;;23.88;33.85;94275.31;5043799;28;1223;-67
2023/02/27 01:46:31;;;;;;;;;;;;;;;23.86;33.77;94280.94;5048573;28;1417;-68
2023/02/27 01:49:03;;;;;;;;;;;;;;;23.83;34.46;94294.81;5054455;28;1287;-67
2023/02/27 01:51:30;;;;;;;;;;;;;;;23.79;34.19;94301.69;5045292;28;1277;-67
2023/02/27 01:53:56;;;;;;;;;;;;;;;23.79;34.36;94309.75;5055050;28;1131;-67
2023/02/27 01:56:27;;;;;;;;;;;;;;;23.79;34.65;94299.03;5054457;28;1139;-73
2023/02/27 01:58:55;;;;;;;;;;;;;;;23.86;34.50;94305.06;5037279;28;1890;-67
2023/02/27 02:01:21;;;;;;;;;;;;;;;23.77;34.60;94303.84;5057823;28;1299;-67
2023/02/27 02:03:53;;;;;;;;;;;;;;;23.79;34.72;94294.50;5036708;28;1416;-67
2023/02/27 02:06:19;;;;;;;;;;;;;;;23.81;34.59;94301.47;5033377;28;1242;-67
2023/02/27 02:08:46;;;;;;;;;;;;;;;23.88;34.39;94302.94;5034126;28;1525;-67
2023/02/27 02:11:14;;;;;;;;;;;;;;;23.86;34.68;94310.41;5013092;28;1394;-67
2023/02/27 02:13:39;;;;;;;;;;;;;;;23.84;34.77;94349.19;5026971;28;1303;-67
2023/02/27 02:16:08;;;;;;;;;;;;;;;23.87;34.89;94338.81;5033552;28;1208;-67
2023/02/27 02:18:43;;;;;;;;;;;;;;;23.83;34.73;94336.88;5041764;28;1910;-68
2023/02/27 02:21:25;;;;;;;;;;;;;;;23.91;34.66;94331.94;5031990;28;1412;-67
2023/02/27 02:24:23;;;;;;;;;;;;;;;23.79;35.40;94376.69;5043021;28;1212;-67
2023/02/27 02:27:00;;;;;;;;;;;;;;;23.97;34.71;94470.25;4999212;28;1317;-67
2023/02/27 02:29:34;;;;;;;;;;;;;;;24.04;34.71;94509.50;5033341;28;1143;-67
2023/02/27 02:32:18;;;;;;;;;;;;;;;23.86;35.24;94507.81;5028954;28;1397;-68
2023/02/27 02:35:16;;;;;;;;;;;;;;;23.90;35.45;94515.13;5016200;28;1295;-67
2023/02/27 02:37:47;;;;;;;;;;;;;;;23.83;35.38;94495.72;4984024;28;1567;-66
2023/02/27 02:40:24;;;;;;;;;;;;;;;23.83;35.09;94513.66;5045441;28;1898;-67
2023/02/27 02:43:10;;;;;;;;;;;;;;;23.82;35.27;94522.72;5033973;28;1405;-66
2023/02/27 02:45:35;;;;;;;;;;;;;;;23.84;35.19;94526.78;5027738;28;1265;-66
2023/02/27 02:48:06;;;;;;;;;;;;;;;23.82;35.43;94518.16;5034062;28;1284;-67
2023/02/27 02:50:39;;;;;;;;;;;;;;;23.84;35.31;94532.16;5022070;28;1417;-65
2023/02/27 02:53:11;;;;;;;;;;;;;;;23.85;35.04;94557.91;5033987;28;1477;-67
2023/02/27 02:55:45;;;;;;;;;;;;;;;23.90;35.03;94563.34;5022888;28;1253;-66
2023/02/27 02:58:17;;;;;;;;;;;;;;;23.87;35.37;94552.28;5033542;28;1464;-67
2023/02/27 03:00:49;;;;;;;;;;;;;;;23.84;35.28;94553.59;5004383;28;1379;-67
2023/02/27 03:03:21;;;;;;;;;;;;;;;23.79;35.13;94562.34;5032369;28;1387;-67
2023/02/27 03:05:49;;;;;;;;;;;;;;;23.77;35.31;94574.34;5039453;28;1100;-66
2023/02/27 03:08:17;;;;;;;;;;;;;;;23.84;35.37;94566.97;5039825;28;1384;-69
2023/02/27 03:10:47;;;;;;;;;;;;;;;23.93;35.27;94562.06;5036180;28;1130;-66
2023/02/27 03:13:22;;;;;;;;;;;;;;;23.89;35.34;94568.97;5041797;28;1217;-67
2023/02/27 03:15:53;;;;;;;;;;;;;;;23.93;35.19;94562.88;5040226;28;1154;-66
2023/02/27 03:18:24;;;;;;;;;;;;;;;23.94;35.30;94553.81;5023570;28;1917;-66
2023/02/27 03:20:55;;;;;;;;;;;;;;;23.94;35.26;94532.38;5032139;28;1353;-66
2023/02/27 03:23:24;;;;;;;;;;;;;;;23.93;35.38;94517.31;5034834;28;1186;-67
2023/02/27 03:25:50;;;;;;;;;;;;;;;24.06;34.85;94532.31;5016903;28;1376;-66
2023/02/27 03:28:22;;;;;;;;;;;;;;;24.17;34.51;94584.25;5036426;28;1418;-67
2023/02/27 03:30:50;;;;;;;;;;;;;;;24.19;34.38;94600.88;5034961;28;1217;-67
2023/02/27 03:33:28;;;;;;;;;;;;;;;24.26;34.14;94601.56;5035138;28;1402;-67
2023/02/27 03:35:56;;;;;;;;;;;;;;;24.25;34.30;94634.81;5030468;28;1214;-66
2023/02/27 03:38:39;;;;;;;;;;;;;;;24.23;34.35;94643.06;5032182;28;1888;-66
2023/02/27 03:41:12;;;;;;;;;;;;;;;24.04;34.82;94659.53;5019267;28;1220;-66
2023/02/27 03:43:49;;;;;;;;;;;;;;;24.12;34.99;94643.09;5031621;28;1464;-67
2023/02/27 03:46:16;;;;;;;;;;;;;;;23.95;35.31;94641.16;5048938;28;1034;-66
2023/02/27 03:48:43;;;;;;;;;;;;;;;23.92;35.29;94648.84;5031986;28;1405;-67
2023/02/27 03:51:12;;;;;;;;;;;;;;;23.77;35.61;94650.16;5016206;28;1280;-67
2023/02/27 03:53:43;;;;;;;;;;;;;;;23.70;35.74;94657.47;5018614;28;1322;-67
2023/02/27 03:56:09;;;;;;;;;;;;;;;23.68;36.01;94653.38;5036847;28;1314;-67
2023/02/27 03:58:35;;;;;;;;;;;;;;;23.62;36.07;94646.28;5035597;28;1969;-67
2023/02/27 04:01:01;;;;;;;;;;;;;;;23.57;36.28;94655.81;5038730;28;1264;-67
2023/02/27 04:03:26;;;;;;;;;;;;;;;23.57;31.92;94671.91;5021460;28;1438;-71
2023/02/27 04:05:51;;;;;;;;;;;;;;;23.04;32.86;94672.75;5040331;28;1143;-68
2023/02/27 04:08:35;;;;;;;;;;;;;;;22.83;31.80;94686.63;5036845;28;1480;-67
2023/02/27 04:11:13;;;;;;;;;;;;;;;22.59;32.77;94686.50;5031241;28;1194;-69
2023/02/27 04:13:41;;;;;;;;;;;;;;;20.92;31.78;94697.13;5031976;28;1393;-67
2023/02/27 04:16:25;;;;;;;;;;;;;;;20.49;31.91;94703.09;5031314;28;1400;-67
2023/02/27 04:19:07;;;;;;;;;;;;;;;20.30;32.60;94710.13;5034831;28;1977;-67
2023/02/27 04:21:38;;;;;;;;;;;;;;;19.98;32.44;94702.03;5030957;28;1272;-67
2023/02/27 04:24:06;;;;;;;;;;;;;;;20.20;32.28;94697.22;5030815;28;1410;-67
2023/02/27 04:26:36;;;;;;;;;;;;;;;19.77;32.63;94711.06;5023811;28;1295;-67
2023/02/27 04:29:04;;;;;;;;;;;;;;;19.32;33.32;94718.03;5031034;28;1405;-67
2023/02/27 04:31:45;;;;;;;;;;;;;;;19.39;33.03;94716.22;5032206;28;1480;-66
2023/02/27 04:34:30;;;;;;;;;;;;;;;19.40;33.13;94717.84;5030450;28;1275;-67
2023/02/27 04:37:01;;;;;;;;;;;;;;;19.18;33.20;94735.84;5009565;28;1394;-66
2023/02/27 04:39:29;;;;;;;;;;;;;;;18.58;34.28;94750.78;5009953;28;1977;-66
2023/02/27 04:42:05;;;;;;;;;;;;;;;18.07;35.35;94752.00;5027776;28;1477;-66
2023/02/27 04:44:32;;;;;;;;;;;;;;;18.51;34.34;94764.06;5041217;28;1219;-66
2023/02/27 04:46:59;;;;;;;;;;;;;;;18.09;34.90;94786.31;5032190;28;933;-67
2023/02/27 04:49:30;;;;;;;;;;;;;;;18.13;36.52;94801.66;5031046;28;1384;-66
2023/02/27 04:51:59;;;;;;;;;;;;;;;18.73;36.98;94803.78;5031529;28;1410;-67
2023/02/27 04:54:34;;;;;;;;;;;;;;;19.23;36.10;94812.34;5041033;28;1352;-67
2023/02/27 04:57:01;;;;;;;;;;;;;;;19.00;34.93;94810.03;5032475;28;813;-67
2023/02/27 04:59:29;;;;;;;;;;;;;;;18.42;35.96;94813.88;5009841;28;1952;-67
2023/02/27 05:02:15;;;;;;;;;;;;;;;18.70;35.74;94804.16;5005077;28;1402;-67
2023/02/27 05:04:42;;;;;;;;;;;;;;;18.54;35.46;94819.44;5012821;28;1386;-69
2023/02/27 05:07:11;;;;;;;;;;;;;;;18.64;35.17;94811.94;5017826;28;1122;-67
2023/02/27 05:09:40;;;;;;;;;;;;;;;18.62;35.08;94824.59;5016279;28;1322;-68
2023/02/27 05:12:15;;;;;;;;;;;;;;;18.25;36.29;94830.31;5000247;28;1206;-67
2023/02/27 05:14:43;;;;;;;;;;;;;;;18.24;36.93;94849.91;5010252;28;1285;-67
2023/02/27 05:17:13;;;;;;;;;;;;;;;18.34;36.53;94855.69;5013928;28;1284;-67
2023/02/27 05:19:40;;;;;;;;;;;;;;;18.99;35.80;94865.06;5022012;28;1906;-67
2023/02/27 05:22:23;;;;;;;;;;;;;;;20.21;34.05;94855.22;5020439;28;998;-67
2023/02/27 05:24:56;;;;;;;;;;;;;;;20.96;33.05;94868.19;5008850;28;1332;-67
2023/02/27 05:27:33;;;;;;;;;;;;;;;21.30;32.59;94865.13;5016082;28;910;-67
2023/02/27 05:30:06;;;;;;;;;;;;;;;21.53;32.26;94869.16;5016088;28;847;-67
2023/02/27 05:32:47;;;;;;;;;;;;;;;21.67;32.00;94865.38;4996421;28;966;-67
2023/02/27 05:35:19;;;;;;;;;;;;;;;21.78;31.90;94867.34;4986264;28;1004;-67
2023/02/27 05:37:54;;;;;;;;;;;;;;;21.86;32.01;94858.25;4994806;28;1148;-67
2023/02/27 05:40:23;;;;;;;;;;;;;;;21.95;31.95;94874.84;4995996;28;1969;-67
2023/02/27 05:43:09;;;;;;;;;;;;;;;22.00;31.77;94858.97;4994641;28;1485;-67
2023/02/27 05:45:36;;;;;;;;;;;;;;;22.06;31.69;94874.13;4984952;28;1354;-67
2023/02/27 05:48:06;;;;;;;;;;;;;;;22.11;31.69;94879.59;4995588;28;1088;-67
2023/02/27 05:50:33;;;;;;;;;;;;;;;22.16;31.73;94863.75;4995830;28;823;-67
2023/02/27 05:53:00;;;;;;;;;;;;;;;22.18;31.83;94875.06;4995784;28;799;-67
2023/02/27 05:55:32;;;;;;;;;;;;;;;22.23;31.76;94891.28;4995765;28;842;-67
2023/02/27 05:58:13;;;;;;;;;;;;;;;22.27;31.54;94882.81;4985890;28;1160;-67
2023/02/27 06:00:47;;;;;;;;;;;;;;;22.29;31.70;94894.94;4995854;28;1904;-67
2023/02/27 06:03:12;;;;;;;;;;;;;;;22.33;31.64;94885.41;5009855;28;1237;-67
2023/02/27 06:05:39;;;;;;;;;;;;;;;22.35;31.44;94894.06;5015418;28;807;-66
2023/02/27 06:08:04;;;;;;;;;;;;;;;22.39;31.57;94921.16;5010109;28;988;-67
2023/02/27 06:10:30;;;;;;;;;;;;;;;22.42;31.56;94912.69;5009932;28;1100;-67
2023/02/27 06:12:55;;;;;;;;;;;;;;;22.43;31.63;94900.97;5013615;28;1198;-76
2023/02/27 06:15:21;;;;;;;;;;;;;;;22.48;31.36;94914.47;5014952;28;918;-66
2023/02/27 06:17:47;;;;;;;;;;;;;;;22.50;31.56;94912.41;5014857;28;827;-66
2023/02/27 06:20:12;;;;;;;;;;;;;;;22.52;31.31;94899.66;5003747;28;1898;-66
2023/02/27 06:22:38;;;;;;;;;;;;;;;22.53;31.33;94919.19;5014722;28;894;-66
2023/02/27 06:25:04;;;;;;;;;;;;;;;22.54;31.49;94913.63;5014759;28;874;-66
2023/02/27 06:27:29;;;;;;;;;;;;;;;22.55;31.48;94914.44;5014520;28;827;-66
2023/02/27 06:29:54;;;;;;;;;;;;;;;22.56;31.43;94911.53;5014578;28;879;-66
2023/02/27 06:32:20;;;;;;;;;;;;;;;22.59;31.47;94924.44;5004758;28;1146;-66
2023/02/27 06:34:45;;;;;;;;;;;;;;;22.61;31.41;94930.41;5014329;28;787;-66
2023/02/27 06:37:11;;;;;;;;;;;;;;;22.63;31.46;94928.34;5013309;28;1376;-67
2023/02/27 06:39:36;;;;;;;;;;;;;;;22.67;31.48;94947.44;5014687;28;1902;-68
2023/02/27 06:42:01;;;;;;;;;;;;;;;22.68;31.18;94952.56;5009698;28;1037;-74
2023/02/27 06:44:28;;;;;;;;;;;;;;;22.70;31.34;94948.84;5024526;28;1402;-67
2023/02/27 06:46:53;;;;;;;;;;;;;;;22.71;31.24;94934.44;5014465;28;880;-67
2023/02/27 06:49:19;;;;;;;;;;;;;;;22.71;31.24;94937.91;5013027;28;1236;-67
2023/02/27 06:51:44;;;;;;;;;;;;;;;22.74;31.16;94933.97;5014535;28;810;-67
2023/02/27 06:54:09;;;;;;;;;;;;;;;22.74;31.13;94937.50;4986571;28;1209;-67
2023/02/27 06:56:34;;;;;;;;;;;;;;;22.76;31.32;94932.72;5029431;28;1195;-67
2023/02/27 06:59:00;;;;;;;;;;;;;;;22.77;31.29;94936.22;5014099;28;1890;-67
2023/02/27 07:01:25;;;;;;;;;;;;;;;22.80;31.16;94930.44;5014142;28;1194;-67
2023/02/27 07:03:51;;;;;;;;;;;;;;;22.79;31.06;94926.13;5012923;28;1338;-67
2023/02/27 07:06:16;;;;;;;;;;;;;;;22.82;30.96;94926.50;5004146;28;1047;-67
2023/02/27 07:08:42;;;;;;;;;;;;;;;22.83;30.95;94914.78;5013056;28;1456;-67
2023/02/27 07:11:07;;;;;;;;;;;;;;;22.85;31.18;94931.44;5012695;28;1276;-76
2023/02/27 07:13:32;;;;;;;;;;;;;;;22.88;31.03;94932.81;5014289;28;873;-73
2023/02/27 07:15:58;;;;;;;;;;;;;;;22.89;31.08;94934.47;5009072;28;1039;-67
2023/02/27 07:18:24;;;;;;;;;;;;;;;22.89;31.06;94935.28;5008664;28;1252;-67
2023/02/27 07:20:50;;;;;;;;;;;;;;;22.92;30.99;94942.03;5013742;28;1965;-66
2023/02/27 07:23:16;;;;;;;;;;;;;;;22.93;31.09;94948.22;5013904;28;907;-67
2023/02/27 07:25:44;;;;;;;;;;;;;;;22.96;31.05;94953.16;5013776;28;835;-67
2023/02/27 07:28:10;;;;;;;;;;;;;;;22.96;30.95;94953.97;4986020;28;1221;-67
2023/02/27 07:30:35;;;;;;;;;;;;;;;22.99;30.81;94948.16;5028795;28;1196;-67
2023/02/27 07:33:00;;;;;;;;;;;;;;;23.02;30.73;94954.94;5013508;28;972;-67
2023/02/27 07:35:26;;;;;;;;;;;;;;;23.04;30.96;94971.59;5013794;28;811;-66
2023/02/27 07:37:51;;;;;;;;;;;;;;;23.05;30.90;94963.34;5013532;28;803;-67
2023/02/27 07:40:17;;;;;;;;;;;;;;;23.06;30.94;94948.94;5003375;28;1906;-68
2023/02/27 07:42:42;;;;;;;;;;;;;;;23.06;31.00;94945.44;5013330;28;854;-68
2023/02/27 07:45:08;;;;;;;;;;;;;;;23.06;30.87;94956.94;5012457;28;1306;-67
2023/02/27 07:47:34;;;;;;;;;;;;;;;23.10;30.74;94968.84;5012592;28;870;-67
2023/02/27 07:49:59;;;;;;;;;;;;;;;23.11;30.76;94959.78;5007237;28;1185;-67
2023/02/27 07:52:24;;;;;;;;;;;;;;;23.12;30.59;94968.63;5008002;28;1065;-67
2023/02/27 07:54:50;;;;;;;;;;;;;;;23.11;30.68;94967.00;4995622;28;1213;-66
2023/02/27 07:57:15;;;;;;;;;;;;;;;23.11;30.87;94967.00;5028357;28;1203;-66
2023/02/27 07:59:40;;;;;;;;;;;;;;;23.14;30.83;94966.56;5013098;28;1961;-67
2023/02/27 08:02:06;;;;;;;;;;;;;;;23.17;30.70;94984.84;5003272;28;1292;-67
2023/02/27 08:04:31;;;;;;;;;;;;;;;23.16;30.78;94977.03;5011384;28;1303;-67
2023/02/27 08:06:56;;;;;;;;;;;;;;;23.17;30.60;94987.50;5012068;28;1184;-66
2023/02/27 08:09:22;;;;;;;;;;;;;;;23.19;30.75;94989.94;5013325;28;888;-67
2023/02/27 08:11:47;;;;;;;;;;;;;;;23.17;30.74;94987.50;5012978;28;870;-67
2023/02/27 08:14:13;;;;;;;;;;;;;;;23.18;30.61;94978.44;4985298;28;1261;-70
2023/02/27 08:16:38;;;;;;;;;;;;;;;23.20;30.70;94980.91;5013020;28;927;-67
2023/02/27 08:19:03;;;;;;;;;;;;;;;23.22;30.70;94993.00;5012901;28;1997;-66
2023/02/27 08:21:29;;;;;;;;;;;;;;;23.23;30.58;94983.13;5012989;28;842;-67
2023/02/27 08:23:54;;;;;;;;;;;;;;;23.25;30.82;94979.19;5009082;28;1051;-68
2023/02/27 08:26:20;;;;;;;;;;;;;;;23.27;30.53;94981.63;5006551;28;1441;-68
2023/02/27 08:28:46;;;;;;;;;;;;;;;23.28;30.44;94977.91;5012859;28;889;-67
2023/02/27 08:31:12;;;;;;;;;;;;;;;23.29;30.48;94974.19;5011657;28;1397;-67
2023/02/27 08:33:37;;;;;;;;;;;;;;;23.30;30.62;94983.84;5011330;28;1326;-67
2023/02/27 08:36:02;;;;;;;;;;;;;;;23.33;30.74;94994.13;5003084;28;1105;-65
2023/02/27 08:38:28;;;;;;;;;;;;;;;23.31;30.49;94994.34;4995262;28;1348;-68
2023/02/27 08:40:53;;;;;;;;;;;;;;;23.34;30.45;94987.75;5027967;28;1902;-67
2023/02/27 08:43:19;;;;;;;;;;;;;;;23.36;30.56;94991.00;5012888;28;922;-67
2023/02/27 08:45:45;;;;;;;;;;;;;;;23.37;30.38;94987.28;5013219;28;880;-67
2023/02/27 08:48:12;;;;;;;;;;;;;;;23.37;30.42;94981.09;4985133;28;1336;-67
2023/02/27 08:50:38;;;;;;;;;;;;;;;23.39;30.38;94989.72;5012987;28;929;-67
2023/02/27 08:53:03;;;;;;;;;;;;;;;23.37;30.67;94991.81;5012662;28;908;-67
2023/02/27 08:55:28;;;;;;;;;;;;;;;23.38;30.48;94988.91;5012596;28;942;-66
2023/02/27 08:57:54;;;;;;;;;;;;;;;23.42;30.43;94992.78;4992992;28;1181;-66
2023/02/27 09:00:19;;;;;;;;;;;;;;;23.44;30.37;94998.72;5007965;28;1898;-66
2023/02/27 09:02:45;;;;;;;;;;;;;;;23.44;30.27;95005.94;5014788;28;1416;-66
2023/02/27 09:05:10;;;;;;;;;;;;;;;23.43;30.42;95010.50;5016630;28;847;-66
2023/02/27 09:07:35;;;;;;;;;;;;;;;23.44;30.41;95006.75;5016191;28;964;-66
2023/02/27 09:10:01;;;;;;;;;;;;;;;23.45;30.50;95016.44;5007968;28;1103;-67
2023/02/27 09:12:26;;;;;;;;;;;;;;;23.46;30.11;95020.75;5029461;28;1551;-67
2023/02/27 09:14:51;;;;;;;;;;;;;;;23.47;30.24;95019.69;5016148;28;787;-66
2023/02/27 09:17:16;;;;;;;;;;;;;;;23.48;30.36;95015.16;5016123;28;831;-66
2023/02/27 09:19:42;;;;;;;;;;;;;;;23.47;30.47;95025.06;5015939;28;1963;-66
2023/02/27 09:22:07;;;;;;;;;;;;;;;23.47;30.41;95025.06;5005996;28;1085;-66
2023/02/27 09:24:32;;;;;;;;;;;;;;;23.49;30.28;95022.16;5031380;28;1243;-67
2023/02/27 09:26:58;;;;;;;;;;;;;;;23.48;30.44;95025.88;5016307;28;968;-68
2023/02/27 09:29:24;;;;;;;;;;;;;;;23.50;30.49;95019.25;5015826;28;926;-66
2023/02/27 09:31:50;;;;;;;;;;;;;;;23.50;30.24;95027.28;5016048;28;854;-66
2023/02/27 09:34:15;;;;;;;;;;;;;;;23.50;30.37;95019.25;5005819;28;1167;-66
2023/02/27 09:36:41;;;;;;;;;;;;;;;23.49;30.36;95022.16;5015607;28;902;-66
2023/02/27 09:39:08;;;;;;;;;;;;;;;23.51;30.39;95025.44;5015500;28;1948;-66
2023/02/27 09:41:52;;;;;;;;;;;;;;;23.51;30.27;95025.44;5015472;28;838;-66
2023/02/27 09:44:42;;;;;;;;;;;;;;;23.50;30.13;95016.56;5005869;28;1143;-66
2023/02/27 09:47:12;;;;;;;;;;;;;;;23.51;30.43;95031.63;5017545;28;1303;-66
2023/02/27 09:49:57;;;;;;;;;;;;;;;23.51;30.42;95038.84;5014223;28;1274;-67
2023/02/27 09:52:23;;;;;;;;;;;;;;;23.50;30.38;95042.53;5015519;28;823;-67
2023/02/27 09:54:48;;;;;;;;;;;;;;;23.50;30.42;95042.53;5011329;28;1068;-68
2023/02/27 09:57:17;;;;;;;;;;;;;;;23.52;30.39;95043.94;5024919;28;1444;-67
2023/02/27 09:59:45;;;;;;;;;;;;;;;23.54;30.17;95049.91;5015505;28;1970;-67
2023/02/27 10:02:28;;;;;;;;;;;;;;;23.53;30.23;95050.94;5014999;28;1301;-68
2023/02/27 10:04:57;;;;;;;;;;;;;;;23.52;30.23;95053.84;5015123;28;878;-67
2023/02/27 10:07:22;;;;;;;;;;;;;;;23.51;30.44;95061.06;5005148;28;1108;-67
2023/02/27 10:09:56;;;;;;;;;;;;;;;23.53;30.25;95053.59;5014301;28;999;-67
2023/02/27 10:12:22;;;;;;;;;;;;;;;23.54;30.36;95052.59;5030140;28;1342;-66
2023/02/27 10:14:47;;;;;;;;;;;;;;;23.53;30.35;95050.13;5014929;28;819;-67
2023/02/27 10:17:22;;;;;;;;;;;;;;;23.51;30.22;95047.69;5014881;28;866;-67
2023/02/27 10:19:47;;;;;;;;;;;;;;;23.56;30.25;95045.16;5005238;28;1969;-67
2023/02/27 10:22:16;;;;;;;;;;;;;;;23.55;30.37;95062.25;5014829;28;867;-67
2023/02/27 10:24:46;;;;;;;;;;;;;;;23.55;30.41;95064.13;5015076;28;803;-66
2023/02/27 10:27:14;;;;;;;;;;;;;;;23.55;30.25;95064.13;5023389;28;1213;-66
2023/02/27 10:29:40;;;;;;;;;;;;;;;23.54;30.34;95062.50;5024793;28;1170;-67
2023/02/27 10:32:11;;;;;;;;;;;;;;;23.54;30.39;95060.63;5034195;28;1095;-67
2023/02/27 10:34:38;;;;;;;;;;;;;;;23.54;30.33;95047.22;5034380;28;936;-67
2023/02/27 10:37:04;;;;;;;;;;;;;;;23.56;30.40;95047.84;5016508;28;1259;-67
2023/02/27 10:39:34;;;;;;;;;;;;;;;23.56;30.49;95055.03;5034543;28;1962;-67
2023/02/27 10:42:04;;;;;;;;;;;;;;;23.56;30.26;95038.97;5006024;28;1459;-67
2023/02/27 10:44:30;;;;;;;;;;;;;;;23.55;30.39;95038.16;5034152;28;930;-67
2023/02/27 10:46:56;;;;;;;;;;;;;;;23.57;30.25;95040.63;5034113;28;869;-67
2023/02/27 10:49:22;;;;;;;;;;;;;;;23.55;30.40;95042.69;5034029;28;866;-66
2023/02/27 10:52:03;;;;;;;;;;;;;;;23.56;30.37;95050.50;5029323;28;1114;-67
2023/02/27 10:54:28;;;;;;;;;;;;;;;23.56;30.34;95045.16;5011248;28;1208;-66
2023/02/27 10:56:55;;;;;;;;;;;;;;;23.55;30.28;95048.03;5016131;28;1189;-66
2023/02/27 10:59:29;;;;;;;;;;;;;;;23.58;30.31;95047.59;5016033;28;1957;-67
2023/02/27 11:01:56;;;;;;;;;;;;;;;23.59;30.35;95035.84;5033600;28;1217;-67
2023/02/27 11:04:27;;;;;;;;;;;;;;;23.59;30.08;95041.19;5023987;28;1022;-67
2023/02/27 11:06:53;;;;;;;;;;;;;;;23.58;30.46;95048.41;5033813;28;775;-66
2023/02/27 11:09:24;;;;;;;;;;;;;;;23.59;30.15;95035.84;5033672;28;934;-66
2023/02/27 11:11:50;;;;;;;;;;;;;;;23.57;30.38;95030.72;5033675;28;827;-66
2023/02/27 11:14:19;;;;;;;;;;;;;;;23.60;30.32;95028.66;5013060;28;1492;-67
2023/02/27 11:16:49;;;;;;;;;;;;;;;23.60;30.31;95015.25;5027610;28;1230;-66
2023/02/27 11:19:36;;;;;;;;;;;;;;;23.58;30.36;95018.97;5033447;28;1910;-66
2023/02/27 11:22:06;;;;;;;;;;;;;;;23.58;30.47;95018.13;5033460;28;838;-67
2023/02/27 11:24:32;;;;;;;;;;;;;;;23.60;30.48;95012.56;5015724;28;1437;-72
2023/02/27 11:27:05;;;;;;;;;;;;;;;23.60;29.99;95020.59;5023358;28;1074;-67
2023/02/27 11:29:31;;;;;;;;;;;;;;;23.62;30.33;95010.47;5015531;28;1422;-67
2023/02/27 11:31:57;;;;;;;;;;;;;;;23.63;30.22;95007.59;5033364;28;945;-67
2023/02/27 11:34:23;;;;;;;;;;;;;;;23.61;30.31;95004.31;5015529;28;1256;-66
2023/02/27 11:36:50;;;;;;;;;;;;;;;23.62;30.13;95011.28;5015527;28;1185;-68
2023/02/27 11:39:28;;;;;;;;;;;;;;;23.63;30.11;95009.44;5023173;28;1900;-67
2023/02/27 11:41:55;;;;;;;;;;;;;;;23.61;30.32;95003.50;5033225;28;950;-67
2023/02/27 11:44:23;;;;;;;;;;;;;;;23.62;30.36;95005.13;5015367;28;1427;-68
2023/02/27 11:46:48;;;;;;;;;;;;;;;23.60;30.33;95007.22;5033083;28;956;-67
2023/02/27 11:49:23;;;;;;;;;;;;;;;23.61;30.20;95012.34;5023401;28;1090;-67
2023/02/27 11:52:07;;;;;;;;;;;;;;;23.62;30.30;95018.50;5015249;28;1339;-67
2023/02/27 11:54:38;;;;;;;;;;;;;;;23.61;30.35;95017.69;5031716;28;1158;-67
2023/02/27 11:57:09;;;;;;;;;;;;;;;23.62;30.33;95016.63;5032954;28;811;-66
2023/02/27 11:59:38;;;;;;;;;;;;;;;23.61;30.05;95012.34;5032898;28;1901;-68
2023/02/27 12:02:12;;;;;;;;;;;;;;;23.61;30.42;95015.00;5023810;28;1247;-67
2023/02/27 12:04:42;;;;;;;;;;;;;;;23.60;30.32;95004.53;5032956;28;846;-66
2023/02/27 12:07:17;;;;;;;;;;;;;;;23.60;30.25;95007.22;5015258;28;1216;-67
2023/02/27 12:09:42;;;;;;;;;;;;;;;23.58;30.34;95005.56;5032838;28;968;-67
2023/02/27 12:12:28;;;;;;;;;;;;;;;23.58;30.33;95002.06;5023000;28;1081;-67
2023/02/27 12:15:01;;;;;;;;;;;;;;;23.56;30.25;94999.63;5032446;28;1031;-67
2023/02/27 12:17:38;;;;;;;;;;;;;;;23.59;30.25;94998.34;5015287;28;1205;-67
2023/02/27 12:20:13;;;;;;;;;;;;;;;23.59;30.33;94998.34;5032650;28;1891;-67
2023/02/27 12:22:43;;;;;;;;;;;;;;;23.56;30.25;94996.97;5028231;28;964;-67
2023/02/27 12:25:21;;;;;;;;;;;;;;;23.57;30.46;95008.47;5027395;28;1099;-67
2023/02/27 12:27:52;;;;;;;;;;;;;;;23.55;30.30;94997.16;5032728;28;881;-68
2023/02/27 12:30:20;;;;;;;;;;;;;;;23.54;30.57;94993.69;5033003;28;886;-70
2023/02/27 12:32:53;;;;;;;;;;;;;;;23.54;30.29;95001.72;5032602;28;830;-67
2023/02/27 12:35:21;;;;;;;;;;;;;;;23.56;30.41;94996.97;5026580;28;1091;-67
2023/02/27 12:37:46;;;;;;;;;;;;;;;23.55;30.44;94994.50;5036657;28;872;-67
2023/02/27 12:40:16;;;;;;;;;;;;;;;23.56;30.40;94991.59;5018692;28;1951;-67
2023/02/27 12:42:41;;;;;;;;;;;;;;;23.54;30.47;94988.31;5036800;28;901;-67
2023/02/27 12:45:17;;;;;;;;;;;;;;;23.38;30.44;94975.53;5034611;28;900;-67
2023/02/27 12:47:42;;;;;;;;;;;;;;;23.54;30.44;94996.34;5024323;28;1106;-66
2023/02/27 12:50:14;;;;;;;;;;;;;;;23.56;30.28;94993.44;5016519;28;826;-67
2023/02/27 12:52:52;;;;;;;;;;;;;;;23.56;30.45;95002.31;5016594;28;909;-67
2023/02/27 12:55:38;;;;;;;;;;;;;;;23.56;30.46;95002.31;5031625;28;1313;-66
2023/02/27 12:58:06;;;;;;;;;;;;;;;23.54;30.46;94988.31;5006034;28;1042;-66
2023/02/27 13:00:41;;;;;;;;;;;;;;;23.54;30.40;94991.00;5016323;28;1957;-66
2023/02/27 13:03:09;;;;;;;;;;;;;;;23.55;30.38;94989.13;5016108;28;1398;-67
2023/02/27 13:05:34;;;;;;;;;;;;;;;23.55;30.51;94989.13;5031440;28;1392;-67
2023/02/27 13:08:19;;;;;;;;;;;;;;;23.53;30.36;94993.88;5027367;28;1401;-68
2023/02/27 13:10:46;;;;;;;;;;;;;;;23.54;30.48;95001.72;5031049;28;1112;-66